sensor_id;sensor_type;location;lat;lon;timestamp;pressure;altitude;pressure_sealevel;temperature;humidity
75414;BME280;64758;52.122;5.404;2023-09-19T00:00:21;100924.31;;;13.69;100.00
75414;BME280;64758;52.122;5.404;2023-09-19T00:02:58;100917.13;;;13.63;100.00
75414;BME280;64758;52.122;5.404;2023-09-19T00:05:29;100913.03;;;13.60;100.00
75414;BME280;64758;52.122;5.404;2023-09-19T00:07:57;100921.03;;;13.60;100.00
75414;BME280;64758;52.122;5.404;2023-09-19T00:10:28;100931.09;;;13.58;100.00
75414;BME280;64758;52.122;5.404;2023-09-19T00:12:58;100938.50;;;13.56;100.00
75414;BME280;64758;52.122;5.404;2023-09-19T00:15:36;100934.38;;;13.54;100.00
75414;BME280;64758;52.122;5.404;2023-09-19T00:18:04;100936.22;;;13.53;100.00
75414;BME280;64758;52.122;5.404;2023-09-19T00:20:36;100948.31;;;13.56;100.00
75414;BME280;64758;52.122;5.404;2023-09-19T00:23:03;100940.13;;;13.57;100.00
75414;BME280;64758;52.122;5.404;2023-09-19T00:25:30;100936.44;;;13.58;100.00
75414;BME280;64758;52.122;5.404;2023-09-19T00:27:59;100941.78;;;13.58;100.00
75414;BME280;64758;52.122;5.404;2023-09-19T00:30:25;100936.22;;;13.60;100.00
75414;BME280;64758;52.122;5.404;2023-09-19T00:32:52;100943.41;;;13.59;100.00
75414;BME280;64758;52.122;5.404;2023-09-19T00:35:21;100952.44;;;13.58;100.00
75414;BME280;64758;52.122;5.404;2023-09-19T00:37:52;100948.31;;;13.56;100.00
75414;BME280;64758;52.122;5.404;2023-09-19T00:40:19;100944.03;;;13.61;100.00
75414;BME280;64758;52.122;5.404;2023-09-19T00:42:46;100946.91;;;13.60;100.00
75414;BME280;64758;52.122;5.404;2023-09-19T00:45:15;100947.34;;;13.63;100.00
75414;BME280;64758;52.122;5.404;2023-09-19T00:47:44;100945.47;;;13.64;100.00
75414;BME280;64758;52.122;5.404;2023-09-19T00:50:22;100951.44;;;13.66;100.00
75414;BME280;64758;52.122;5.404;2023-09-19T00:52:54;100951.25;;;13.67;100.00
75414;BME280;64758;52.122;5.404;2023-09-19T00:55:24;100951.84;;;13.69;100.00
75414;BME280;64758;52.122;5.404;2023-09-19T00:57:52;100955.16;;;13.71;100.00
75414;BME280;64758;52.122;5.404;2023-09-19T01:00:19;100959.88;;;13.69;100.00
75414;BME280;64758;52.122;5.404;2023-09-19T01:02:47;100967.06;;;13.75;100.00
75414;BME280;64758;52.122;5.404;2023-09-19T01:05:14;100971.38;;;13.76;100.00
75414;BME280;64758;52.122;5.404;2023-09-19T01:07:42;100971.38;;;13.76;100.00
75414;BME280;64758;52.122;5.404;2023-09-19T01:10:16;100969.34;;;13.78;100.00
75414;BME280;64758;52.122;5.404;2023-09-19T01:13:08;100969.09;;;13.80;100.00
75414;BME280;64758;52.122;5.404;2023-09-19T01:15:51;100968.91;;;13.81;100.00
75414;BME280;64758;52.122;5.404;2023-09-19T01:31:47;100974.03;;;13.83;100.00
75414;BME280;64758;52.122;5.404;2023-09-19T01:34:15;100966.47;;;13.86;100.00
75414;BME280;64758;52.122;5.404;2023-09-19T01:36:42;100970.16;;;13.85;100.00
75414;BME280;64758;52.122;5.404;2023-09-19T01:39:10;100970.16;;;13.85;100.00
75414;BME280;64758;52.122;5.404;2023-09-19T01:47:29;100980.44;;;13.88;100.00
75414;BME280;64758;52.122;5.404;2023-09-19T01:53:05;100979.19;;;13.91;100.00
75414;BME280;64758;52.122;5.404;2023-09-19T01:55:40;100985.56;;;13.90;100.00
75414;BME280;64758;52.122;5.404;2023-09-19T01:58:30;100984.34;;;13.92;100.00
75414;BME280;64758;52.122;5.404;2023-09-19T02:01:00;100978.38;;;13.90;100.00
75414;BME280;64758;52.122;5.404;2023-09-19T02:03:28;100987.00;;;13.92;100.00
75414;BME280;64758;52.122;5.404;2023-09-19T02:05:55;100983.72;;;13.90;100.00
75414;BME280;64758;52.122;5.404;2023-09-19T02:08:22;100990.72;;;13.91;100.00
75414;BME280;64758;52.122;5.404;2023-09-19T02:10:52;100983.72;;;13.90;100.00
75414;BME280;64758;52.122;5.404;2023-09-19T02:13:21;100987.59;;;13.88;100.00
75414;BME280;64758;52.122;5.404;2023-09-19T02:15:49;100982.25;;;13.88;100.00
75414;BME280;64758;52.122;5.404;2023-09-19T02:18:15;100970.78;;;13.87;100.00
75414;BME280;64758;52.122;5.404;2023-09-19T02:20:42;100968.91;;;13.88;100.00
75414;BME280;64758;52.122;5.404;2023-09-19T02:23:10;100973.63;;;13.86;100.00
75414;BME280;64758;52.122;5.404;2023-09-19T02:25:36;100978.78;;;13.87;100.00
75414;BME280;64758;52.122;5.404;2023-09-19T02:28:04;100981.66;;;13.86;100.00
75414;BME280;64758;52.122;5.404;2023-09-19T02:30:32;100995.00;;;13.86;100.00
75414;BME280;64758;52.122;5.404;2023-09-19T02:32:59;100995.22;;;13.84;100.00
75414;BME280;64758;52.122;5.404;2023-09-19T02:35:29;100977.16;;;13.86;100.00
75414;BME280;64758;52.122;5.404;2023-09-19T02:38:02;100988.63;;;13.87;100.00
75414;BME280;64758;52.122;5.404;2023-09-19T02:40:33;100995.22;;;13.84;100.00
75414;BME280;64758;52.122;5.404;2023-09-19T02:43:02;100996.44;;;13.82;100.00
75414;BME280;64758;52.122;5.404;2023-09-19T02:45:29;100998.47;;;13.80;100.00
75414;BME280;64758;52.122;5.404;2023-09-19T02:47:56;101001.56;;;13.77;100.00
75414;BME280;64758;52.122;5.404;2023-09-19T02:50:23;100986.16;;;13.72;100.00
75414;BME280;64758;52.122;5.404;2023-09-19T02:52:50;100999.28;;;13.67;100.00
75414;BME280;64758;52.122;5.404;2023-09-19T02:55:17;100996.41;;;13.62;100.00
75414;BME280;64758;52.122;5.404;2023-09-19T03:00:14;100991.03;;;13.56;100.00
75414;BME280;64758;52.122;5.404;2023-09-19T03:02:41;101003.97;;;13.52;100.00
75414;BME280;64758;52.122;5.404;2023-09-19T03:05:08;100999.22;;;13.48;100.00
75414;BME280;64758;52.122;5.404;2023-09-19T03:07:37;100994.28;;;13.38;100.00
75414;BME280;64758;52.122;5.404;2023-09-19T03:10:06;100986.06;;;13.33;100.00
75414;BME280;64758;52.122;5.404;2023-09-19T03:12:33;100987.25;;;13.31;100.00
75414;BME280;64758;52.122;5.404;2023-09-19T03:15:01;100987.88;;;13.26;100.00
75414;BME280;64758;52.122;5.404;2023-09-19T03:17:29;100980.66;;;13.20;100.00
75414;BME280;64758;52.122;5.404;2023-09-19T03:19:55;100993.38;;;13.18;100.00
75414;BME280;64758;52.122;5.404;2023-09-19T03:22:23;101005.03;;;13.11;100.00
75414;BME280;64758;52.122;5.404;2023-09-19T03:24:51;100988.00;;;13.05;100.00
75414;BME280;64758;52.122;5.404;2023-09-19T03:27:18;100986.34;;;13.04;100.00
75414;BME280;64758;52.122;5.404;2023-09-19T03:29:45;100986.75;;;13.01;100.00
75414;BME280;64758;52.122;5.404;2023-09-19T03:32:11;100996.78;;;12.99;100.00
75414;BME280;64758;52.122;5.404;2023-09-19T03:34:39;101001.50;;;12.97;100.00
75414;BME280;64758;52.122;5.404;2023-09-19T03:37:09;101001.88;;;12.94;100.00
75414;BME280;64758;52.122;5.404;2023-09-19T03:39:36;101012.47;;;12.88;100.00
75414;BME280;64758;52.122;5.404;2023-09-19T03:42:03;101004.47;;;12.88;100.00
75414;BME280;64758;52.122;5.404;2023-09-19T03:44:33;100988.84;;;12.85;100.00
75414;BME280;64758;52.122;5.404;2023-09-19T03:47:00;100986.97;;;12.79;100.00
75414;BME280;64758;52.122;5.404;2023-09-19T03:49:26;100983.50;;;12.78;100.00
75414;BME280;64758;52.122;5.404;2023-09-19T03:51:53;100989.44;;;12.74;100.00
75414;BME280;64758;52.122;5.404;2023-09-19T03:54:20;100997.63;;;12.72;100.00
75414;BME280;64758;52.122;5.404;2023-09-19T03:56:46;100984.91;;;12.68;100.00
75414;BME280;64758;52.122;5.404;2023-09-19T03:59:13;100994.72;;;12.68;100.00
75414;BME280;64758;52.122;5.404;2023-09-19T04:01:40;101004.13;;;12.64;100.00
75414;BME280;64758;52.122;5.404;2023-09-19T04:04:07;101011.50;;;12.62;100.00
75414;BME280;64758;52.122;5.404;2023-09-19T04:06:34;101009.22;;;12.59;100.00
75414;BME280;64758;52.122;5.404;2023-09-19T04:09:02;101019.44;;;12.55;100.00
75414;BME280;64758;52.122;5.404;2023-09-19T04:11:30;101022.53;;;12.59;100.00
75414;BME280;64758;52.122;5.404;2023-09-19T04:13:57;101028.88;;;12.58;100.00
75414;BME280;64758;52.122;5.404;2023-09-19T04:16:24;101025.81;;;12.54;100.00
75414;BME280;64758;52.122;5.404;2023-09-19T04:18:51;101028.84;;;12.51;100.00
75414;BME280;64758;52.122;5.404;2023-09-19T04:21:17;101027.38;;;12.49;100.00
75414;BME280;64758;52.122;5.404;2023-09-19T04:23:46;101029.41;;;12.47;100.00
75414;BME280;64758;52.122;5.404;2023-09-19T04:26:12;101045.22;;;12.48;100.00
75414;BME280;64758;52.122;5.404;2023-09-19T04:28:39;101048.28;;;12.45;100.00
75414;BME280;64758;52.122;5.404;2023-09-19T04:31:06;101053.78;;;12.44;100.00
75414;BME280;64758;52.122;5.404;2023-09-19T04:33:34;101050.09;;;12.45;100.00
75414;BME280;64758;52.122;5.404;2023-09-19T04:36:02;101050.09;;;12.45;100.00
75414;BME280;64758;52.122;5.404;2023-09-19T04:38:49;101065.91;;;12.46;100.00
75414;BME280;64758;52.122;5.404;2023-09-19T04:41:16;101074.72;;;12.47;100.00
75414;BME280;64758;52.122;5.404;2023-09-19T04:43:43;101070.41;;;12.46;100.00
75414;BME280;64758;52.122;5.404;2023-09-19T04:46:10;101068.75;;;12.45;100.00
75414;BME280;64758;52.122;5.404;2023-09-19T04:48:37;101066.53;;;12.48;100.00
75414;BME280;64758;52.122;5.404;2023-09-19T04:51:04;101067.72;;;12.46;100.00
75414;BME280;64758;52.122;5.404;2023-09-19T04:53:30;101063.88;;;12.48;100.00
75414;BME280;64758;52.122;5.404;2023-09-19T04:55:57;101059.34;;;12.49;100.00
75414;BME280;64758;52.122;5.404;2023-09-19T04:58:24;101059.34;;;12.49;100.00
75414;BME280;64758;52.122;5.404;2023-09-19T05:00:50;101059.19;;;12.50;100.00
75414;BME280;64758;52.122;5.404;2023-09-19T05:03:18;101058.34;;;12.50;100.00
75414;BME280;64758;52.122;5.404;2023-09-19T05:05:47;101055.91;;;12.55;100.00
75414;BME280;64758;52.122;5.404;2023-09-19T05:08:14;101065.94;;;12.53;100.00
75414;BME280;64758;52.122;5.404;2023-09-19T05:10:41;101068.22;;;12.56;100.00
75414;BME280;64758;52.122;5.404;2023-09-19T05:13:08;101065.56;;;12.56;100.00
75414;BME280;64758;52.122;5.404;2023-09-19T05:15:34;101068.69;;;12.59;100.00
75414;BME280;64758;52.122;5.404;2023-09-19T05:18:02;101071.53;;;12.58;100.00
75414;BME280;64758;52.122;5.404;2023-09-19T05:20:29;101078.72;;;12.57;100.00
75414;BME280;64758;52.122;5.404;2023-09-19T05:22:59;101071.34;;;12.59;100.00
75414;BME280;64758;52.122;5.404;2023-09-19T05:25:31;101071.34;;;12.59;100.00
75414;BME280;64758;52.122;5.404;2023-09-19T05:27:59;101076.28;;;12.62;100.00
75414;BME280;64758;52.122;5.404;2023-09-19T05:30:26;101083.06;;;12.65;100.00
75414;BME280;64758;52.122;5.404;2023-09-19T05:32:55;101076.72;;;12.66;100.00
75414;BME280;64758;52.122;5.404;2023-09-19T05:35:24;101070.19;;;12.68;100.00
75414;BME280;64758;52.122;5.404;2023-09-19T05:37:51;101066.69;;;12.68;100.00
75414;BME280;64758;52.122;5.404;2023-09-19T05:40:18;101063.00;;;12.68;100.00
75414;BME280;64758;52.122;5.404;2023-09-19T05:42:46;101063.44;;;12.72;100.00
75414;BME280;64758;52.122;5.404;2023-09-19T05:45:13;101062.22;;;12.74;100.00
75414;BME280;64758;52.122;5.404;2023-09-19T05:47:40;101067.59;;;12.81;100.00
75414;BME280;64758;52.122;5.404;2023-09-19T05:50:12;101076.84;;;12.85;100.00
75414;BME280;64758;52.122;5.404;2023-09-19T05:52:38;101071.13;;;12.88;100.00
75414;BME280;64758;52.122;5.404;2023-09-19T05:55:05;101073.44;;;12.91;100.00
75414;BME280;64758;52.122;5.404;2023-09-19T05:57:37;101075.53;;;12.95;100.00
75414;BME280;64758;52.122;5.404;2023-09-19T06:00:09;101081.91;;;13.01;100.00
75414;BME280;64758;52.122;5.404;2023-09-19T06:02:37;101082.34;;;13.04;100.00
75414;BME280;64758;52.122;5.404;2023-09-19T06:05:05;101080.31;;;13.06;100.00
75414;BME280;64758;52.122;5.404;2023-09-19T06:07:38;101086.28;;;13.08;100.00
75414;BME280;64758;52.122;5.404;2023-09-19T06:10:05;101088.94;;;13.08;100.00
75414;BME280;64758;52.122;5.404;2023-09-19T06:12:32;101090.59;;;13.09;100.00
75414;BME280;64758;52.122;5.404;2023-09-19T06:15:04;101100.41;;;13.09;100.00
75414;BME280;64758;52.122;5.404;2023-09-19T06:17:35;101102.06;;;13.10;100.00
75414;BME280;64758;52.122;5.404;2023-09-19T06:20:05;101094.28;;;13.08;100.00
75414;BME280;64758;52.122;5.404;2023-09-19T06:22:40;101099.59;;;13.08;100.00
75414;BME280;64758;52.122;5.404;2023-09-19T06:25:11;101106.59;;;13.09;100.00
75414;BME280;64758;52.122;5.404;2023-09-19T06:27:39;101108.66;;;13.14;100.00
75414;BME280;64758;52.122;5.404;2023-09-19T06:30:09;101110.50;;;13.13;100.00
75414;BME280;64758;52.122;5.404;2023-09-19T06:32:37;101105.59;;;13.17;100.00
75414;BME280;64758;52.122;5.404;2023-09-19T06:35:05;101096.38;;;13.19;100.00
75414;BME280;64758;52.122;5.404;2023-09-19T06:37:34;101088.19;;;13.21;100.00
75414;BME280;64758;52.122;5.404;2023-09-19T06:40:01;101081.63;;;13.23;100.00
75414;BME280;64758;52.122;5.404;2023-09-19T06:42:31;101091.91;;;13.26;100.00
75414;BME280;64758;52.122;5.404;2023-09-19T06:44:59;101091.53;;;13.29;100.00
75414;BME280;64758;52.122;5.404;2023-09-19T06:47:25;101101.81;;;13.32;100.00
75414;BME280;64758;52.122;5.404;2023-09-19T06:49:52;101097.72;;;13.36;100.00
75414;BME280;64758;52.122;5.404;2023-09-19T06:52:19;101091.97;;;13.39;100.00
75414;BME280;64758;52.122;5.404;2023-09-19T06:54:48;101084.38;;;13.43;100.00
75414;BME280;64758;52.122;5.404;2023-09-19T06:57:16;101100.44;;;13.49;100.00
75414;BME280;64758;52.122;5.404;2023-09-19T06:59:43;101093.69;;;13.53;100.00
75414;BME280;64758;52.122;5.404;2023-09-19T07:02:11;101079.72;;;13.58;100.00
75414;BME280;64758;52.122;5.404;2023-09-19T07:04:38;101087.97;;;13.63;100.00
75414;BME280;64758;52.122;5.404;2023-09-19T07:07:04;101081.03;;;13.68;100.00
75414;BME280;64758;52.122;5.404;2023-09-19T07:09:31;101084.72;;;13.74;100.00
75414;BME280;64758;52.122;5.404;2023-09-19T07:11:58;101086.41;;;13.81;100.00
75414;BME280;64758;52.122;5.404;2023-09-19T07:14:24;101091.97;;;13.86;100.00
75414;BME280;64758;52.122;5.404;2023-09-19T07:16:51;101086.84;;;13.91;100.00
75414;BME280;64758;52.122;5.404;2023-09-19T07:19:18;101091.38;;;13.97;100.00
75414;BME280;64758;52.122;5.404;2023-09-19T07:21:45;101096.31;;;14.00;100.00
75414;BME280;64758;52.122;5.404;2023-09-19T07:24:13;101103.31;;;14.07;100.00
75414;BME280;64758;52.122;5.404;2023-09-19T07:26:40;101109.06;;;14.11;100.00
75414;BME280;64758;52.122;5.404;2023-09-19T07:29:07;101106.22;;;14.19;100.00
75414;BME280;64758;52.122;5.404;2023-09-19T07:31:35;101111.16;;;14.22;100.00
75414;BME280;64758;52.122;5.404;2023-09-19T07:34:01;101115.50;;;14.29;100.00
75414;BME280;64758;52.122;5.404;2023-09-19T07:36:30;101127.22;;;14.35;100.00
75414;BME280;64758;52.122;5.404;2023-09-19T07:38:58;101109.75;;;14.39;100.00
75414;BME280;64758;52.122;5.404;2023-09-19T07:41:45;101106.06;;;14.46;100.00
75414;BME280;64758;52.122;5.404;2023-09-19T07:44:12;101120.91;;;14.55;100.00
75414;BME280;64758;52.122;5.404;2023-09-19T07:46:39;101119.22;;;14.61;100.00
75414;BME280;64758;52.122;5.404;2023-09-19T07:49:06;101121.72;;;14.69;100.00
75414;BME280;64758;52.122;5.404;2023-09-19T07:51:32;101120.25;;;14.73;100.00
75414;BME280;64758;52.122;5.404;2023-09-19T07:53:59;101120.69;;;14.83;100.00
75414;BME280;64758;52.122;5.404;2023-09-19T07:56:26;101115.34;;;14.89;100.00
75414;BME280;64758;52.122;5.404;2023-09-19T07:58:54;101120.88;;;14.94;100.00
75414;BME280;64758;52.122;5.404;2023-09-19T08:01:20;101123.97;;;14.98;100.00
75414;BME280;64758;52.122;5.404;2023-09-19T08:03:50;101113.47;;;15.03;99.76
75414;BME280;64758;52.122;5.404;2023-09-19T08:06:16;101114.28;;;15.03;100.00
75414;BME280;64758;52.122;5.404;2023-09-19T08:08:45;101131.13;;;15.17;99.75
75414;BME280;64758;52.122;5.404;2023-09-19T08:11:12;101121.66;;;15.21;99.69
75414;BME280;64758;52.122;5.404;2023-09-19T08:13:39;101127.66;;;15.29;99.23
75414;BME280;64758;52.122;5.404;2023-09-19T08:16:16;101127.63;;;15.35;98.58
75414;BME280;64758;52.122;5.404;2023-09-19T08:18:47;101121.25;;;15.36;98.11
75414;BME280;64758;52.122;5.404;2023-09-19T08:21:14;101121.44;;;15.41;98.23
75414;BME280;64758;52.122;5.404;2023-09-19T08:23:43;101117.72;;;15.42;97.82
75414;BME280;64758;52.122;5.404;2023-09-19T08:26:11;101114.41;;;15.47;97.35
75414;BME280;64758;52.122;5.404;2023-09-19T08:28:38;101102.03;;;15.52;98.29
75414;BME280;64758;52.122;5.404;2023-09-19T08:31:08;101113.94;;;15.63;98.66
75414;BME280;64758;52.122;5.404;2023-09-19T08:33:37;101104.84;;;15.70;98.14
75414;BME280;64758;52.122;5.404;2023-09-19T08:36:06;101108.16;;;15.72;97.23
75414;BME280;64758;52.122;5.404;2023-09-19T08:38:34;101115.34;;;15.78;97.57
75414;BME280;64758;52.122;5.404;2023-09-19T08:41:07;101112.84;;;15.83;97.24
75414;BME280;64758;52.122;5.404;2023-09-19T08:43:35;101113.44;;;15.85;97.42
75414;BME280;64758;52.122;5.404;2023-09-19T08:48:32;101107.06;;;15.86;95.89
75414;BME280;64758;52.122;5.404;2023-09-19T08:51:04;101092.81;;;15.92;95.91
75414;BME280;64758;52.122;5.404;2023-09-19T08:53:51;101106.56;;;16.02;95.11
75414;BME280;64758;52.122;5.404;2023-09-19T08:56:19;101097.47;;;16.03;95.22
75414;BME280;64758;52.122;5.404;2023-09-19T08:58:57;101102.97;;;16.15;92.41
75414;BME280;64758;52.122;5.404;2023-09-19T09:01:29;101101.31;;;16.14;92.22
75414;BME280;64758;52.122;5.404;2023-09-19T09:04:00;101092.59;;;16.25;93.24
75414;BME280;64758;52.122;5.404;2023-09-19T09:06:28;101106.53;;;16.40;93.17
75414;BME280;64758;52.122;5.404;2023-09-19T09:08:55;101100.91;;;16.48;91.75
75414;BME280;64758;52.122;5.404;2023-09-19T09:11:23;101104.00;;;16.51;92.54
75414;BME280;64758;52.122;5.404;2023-09-19T09:13:52;101109.34;;;16.51;91.02
75414;BME280;64758;52.122;5.404;2023-09-19T09:16:18;101101.91;;;16.53;91.91
75414;BME280;64758;52.122;5.404;2023-09-19T09:18:46;101109.28;;;16.58;91.34
75414;BME280;64758;52.122;5.404;2023-09-19T09:21:19;101108.19;;;16.65;91.16
75414;BME280;64758;52.122;5.404;2023-09-19T09:23:49;101101.94;;;16.71;90.62
75414;BME280;64758;52.122;5.404;2023-09-19T09:26:16;101098.81;;;16.74;89.39
75414;BME280;64758;52.122;5.404;2023-09-19T09:28:46;101095.94;;;16.75;89.48
75414;BME280;64758;52.122;5.404;2023-09-19T09:31:24;101095.06;;;16.81;90.69
75414;BME280;64758;52.122;5.404;2023-09-19T09:33:55;101082.25;;;16.83;89.38
75414;BME280;64758;52.122;5.404;2023-09-19T09:36:35;101087.00;;;16.81;88.67
75414;BME280;64758;52.122;5.404;2023-09-19T09:39:04;101083.38;;;16.94;89.33
75414;BME280;64758;52.122;5.404;2023-09-19T09:41:43;101078.31;;;17.04;88.48
75414;BME280;64758;52.122;5.404;2023-09-19T09:44:14;101089.34;;;17.14;86.20
75414;BME280;64758;52.122;5.404;2023-09-19T09:46:43;101072.66;;;17.12;86.47
75414;BME280;64758;52.122;5.404;2023-09-19T09:49:22;101072.22;;;17.15;86.61
75414;BME280;64758;52.122;5.404;2023-09-19T09:52:03;101071.84;;;17.29;86.13
75414;BME280;64758;52.122;5.404;2023-09-19T09:54:37;101062.09;;;17.35;86.57
75414;BME280;64758;52.122;5.404;2023-09-19T09:57:10;101064.78;;;17.35;86.05
75414;BME280;64758;52.122;5.404;2023-09-19T10:02:17;101065.22;;;17.50;85.30
75414;BME280;64758;52.122;5.404;2023-09-19T10:04:56;101075.97;;;17.50;84.45
75414;BME280;64758;52.122;5.404;2023-09-19T10:07:48;101080.75;;;17.48;84.34
75414;BME280;64758;52.122;5.404;2023-09-19T10:13:07;101076.72;;;17.57;84.00
75414;BME280;64758;52.122;5.404;2023-09-19T10:15:39;101089.69;;;17.60;82.70
75414;BME280;64758;52.122;5.404;2023-09-19T10:18:10;101089.34;;;17.56;82.67
75414;BME280;64758;52.122;5.404;2023-09-19T10:20:47;101096.06;;;17.47;82.43
75414;BME280;64758;52.122;5.404;2023-09-19T10:23:17;101082.47;;;17.42;83.88
75414;BME280;64758;52.122;5.404;2023-09-19T10:25:49;101069.56;;;17.51;83.16
75414;BME280;64758;52.122;5.404;2023-09-19T10:28:17;101065.00;;;17.69;82.98
75414;BME280;64758;52.122;5.404;2023-09-19T10:30:50;101061.44;;;17.87;81.75
75414;BME280;64758;52.122;5.404;2023-09-19T10:33:20;101053.81;;;17.84;79.81
75414;BME280;64758;52.122;5.404;2023-09-19T10:35:53;101062.13;;;17.82;81.75
75414;BME280;64758;52.122;5.404;2023-09-19T10:38:27;101037.25;;;17.87;80.33
75414;BME280;64758;52.122;5.404;2023-09-19T10:40:56;101033.44;;;18.05;81.59
75414;BME280;64758;52.122;5.404;2023-09-19T10:43:32;101038.84;;;18.17;79.66
75414;BME280;64758;52.122;5.404;2023-09-19T10:46:05;101026.31;;;17.99;80.14
75414;BME280;64758;52.122;5.404;2023-09-19T10:48:33;101027.22;;;17.93;80.82
75414;BME280;64758;52.122;5.404;2023-09-19T10:53:50;101029.31;;;17.92;80.18
75414;BME280;64758;52.122;5.404;2023-09-19T10:56:23;101026.50;;;17.87;81.58
75414;BME280;64758;52.122;5.404;2023-09-19T10:59:07;101022.91;;;18.04;80.62
75414;BME280;64758;52.122;5.404;2023-09-19T11:01:43;101033.25;;;18.18;80.03
75414;BME280;64758;52.122;5.404;2023-09-19T11:07:07;101011.56;;;18.31;79.10
75414;BME280;64758;52.122;5.404;2023-09-19T11:09:49;101012.38;;;18.43;79.10
75414;BME280;64758;52.122;5.404;2023-09-19T11:26:49;101006.53;;;18.58;78.73
75414;BME280;64758;52.122;5.404;2023-09-19T11:29:28;101009.81;;;18.71;79.15
75414;BME280;64758;52.122;5.404;2023-09-19T11:31:57;101011.34;;;18.67;77.82
75414;BME280;64758;52.122;5.404;2023-09-19T11:34:38;100999.03;;;18.60;77.13
75414;BME280;64758;52.122;5.404;2023-09-19T11:40:06;100996.47;;;18.42;77.60
75414;BME280;64758;52.122;5.404;2023-09-19T11:42:44;100990.03;;;18.31;76.74
75414;BME280;64758;52.122;5.404;2023-09-19T11:48:15;100979.16;;;18.26;77.65
75414;BME280;64758;52.122;5.404;2023-09-19T11:50:43;100982.91;;;18.25;76.82
75414;BME280;64758;52.122;5.404;2023-09-19T11:53:11;100980.09;;;18.43;76.88
75414;BME280;64758;52.122;5.404;2023-09-19T11:55:39;100982.09;;;18.48;75.89
75414;BME280;64758;52.122;5.404;2023-09-19T11:58:07;100985.03;;;18.46;75.20
75414;BME280;64758;52.122;5.404;2023-09-19T12:00:38;100981.75;;;18.44;75.28
75414;BME280;64758;52.122;5.404;2023-09-19T12:03:10;100979.84;;;18.45;75.86
75414;BME280;64758;52.122;5.404;2023-09-19T12:05:38;100999.41;;;18.40;75.82
75414;BME280;64758;52.122;5.404;2023-09-19T12:08:05;100989.69;;;18.39;75.27
75414;BME280;64758;52.122;5.404;2023-09-19T12:10:48;101002.91;;;18.41;75.33
75414;BME280;64758;52.122;5.404;2023-09-19T12:13:21;100997.06;;;18.44;76.02
75414;BME280;64758;52.122;5.404;2023-09-19T12:15:48;100994.97;;;18.57;75.78
75414;BME280;64758;52.122;5.404;2023-09-19T12:18:30;100989.69;;;18.62;75.49
75414;BME280;64758;52.122;5.404;2023-09-19T12:20:57;100996.13;;;18.61;74.76
75414;BME280;64758;52.122;5.404;2023-09-19T12:23:24;100982.56;;;18.56;75.17
75414;BME280;64758;52.122;5.404;2023-09-19T12:25:54;100986.91;;;18.57;75.30
75414;BME280;64758;52.122;5.404;2023-09-19T12:28:26;100991.31;;;18.52;75.39
75414;BME280;64758;52.122;5.404;2023-09-19T12:30:53;100987.94;;;18.45;75.59
75414;BME280;64758;52.122;5.404;2023-09-19T12:33:24;100990.88;;;18.43;76.03
75414;BME280;64758;52.122;5.404;2023-09-19T12:35:53;100987.72;;;18.46;76.28
75414;BME280;64758;52.122;5.404;2023-09-19T12:38:27;100989.94;;;18.49;76.08
75414;BME280;64758;52.122;5.404;2023-09-19T12:40:55;100986.19;;;18.50;76.45
75414;BME280;64758;52.122;5.404;2023-09-19T12:43:23;100987.84;;;18.51;77.80
75414;BME280;64758;52.122;5.404;2023-09-19T12:45:50;100992.97;;;18.41;77.16
75414;BME280;64758;52.122;5.404;2023-09-19T12:48:23;100988.53;;;18.35;77.67
75414;BME280;64758;52.122;5.404;2023-09-19T12:51:00;100995.88;;;18.28;77.89
75414;BME280;64758;52.122;5.404;2023-09-19T12:53:28;100983.47;;;18.27;78.07
75414;BME280;64758;52.122;5.404;2023-09-19T12:55:59;100987.06;;;18.21;79.25
75414;BME280;64758;52.122;5.404;2023-09-19T12:58:27;100976.78;;;18.18;78.77
75414;BME280;64758;52.122;5.404;2023-09-19T13:00:57;100990.97;;;18.25;79.22
75414;BME280;64758;52.122;5.404;2023-09-19T13:05:59;100998.34;;;18.41;79.09
75414;BME280;64758;52.122;5.404;2023-09-19T13:08:28;100992.50;;;18.44;77.74
75414;BME280;64758;52.122;5.404;2023-09-19T13:11:16;100991.09;;;18.53;77.63
75414;BME280;64758;52.122;5.404;2023-09-19T13:13:49;100990.63;;;18.56;78.07
75414;BME280;64758;52.122;5.404;2023-09-19T13:16:21;100994.59;;;18.54;78.88
75414;BME280;64758;52.122;5.404;2023-09-19T13:18:54;100991.22;;;18.47;78.53
75414;BME280;64758;52.122;5.404;2023-09-19T13:21:33;101007.69;;;18.39;79.04
75414;BME280;64758;52.122;5.404;2023-09-19T13:24:23;101002.44;;;18.32;79.92
75414;BME280;64758;52.122;5.404;2023-09-19T13:26:54;101001.09;;;18.23;80.68
75414;BME280;64758;52.122;5.404;2023-09-19T13:29:21;101011.16;;;18.16;81.30
75414;BME280;64758;52.122;5.404;2023-09-19T13:31:49;100998.75;;;18.15;81.53
75414;BME280;64758;52.122;5.404;2023-09-19T13:34:16;100993.66;;;18.25;81.02
75414;BME280;64758;52.122;5.404;2023-09-19T13:36:44;100999.63;;;18.39;80.47
75414;BME280;64758;52.122;5.404;2023-09-19T13:39:10;100985.50;;;18.43;79.37
75414;BME280;64758;52.122;5.404;2023-09-19T13:41:39;100980.56;;;18.52;79.32
75414;BME280;64758;52.122;5.404;2023-09-19T13:44:06;100978.94;;;18.62;79.29
75414;BME280;64758;52.122;5.404;2023-09-19T13:46:32;100983.38;;;18.68;78.18
75414;BME280;64758;52.122;5.404;2023-09-19T13:49:01;100975.31;;;18.68;78.04
75414;BME280;64758;52.122;5.404;2023-09-19T13:51:32;100962.75;;;18.74;78.03
75414;BME280;64758;52.122;5.404;2023-09-19T13:53:59;100962.53;;;18.75;77.47
75414;BME280;64758;52.122;5.404;2023-09-19T13:56:28;100958.81;;;18.76;77.56